Time;durP1;ratioP1;P1;durP2;ratioP2;P2;SDS_P1;SDS_P2;PMS_P1;PMS_P2;Temp;Humidity;BMP_temperature;BMP_pressure;BME280_temperature;BME280_humidity;BME280_pressure;Samples;Min_cycle;Max_cycle;Signal;HPM_P1;HPM_P2
2022/08/28 00:02:17;;;;;;;16.82;8.40;;;;;;;21.49;68.30;100330.69;1775852;80;21079;-89
2022/08/28 00:04:44;;;;;;;12.70;7.28;;;;;;;21.48;68.32;100329.86;1776125;80;20834;-89
2022/08/28 00:07:11;;;;;;;20.85;8.55;;;;;;;21.46;68.34;100319.86;1777177;80;20853;-90
2022/08/28 00:09:38;;;;;;;20.12;8.73;;;;;;;21.44;68.54;100325.87;1778237;80;20908;-85
2022/08/28 00:12:06;;;;;;;25.77;10.10;;;;;;;21.43;68.55;100327.36;1778743;79;20857;-86
2022/08/28 00:14:33;;;;;;;15.98;7.78;;;;;;;21.41;68.71;100326.22;1776966;80;21153;-91
2022/08/28 00:17:00;;;;;;;12.50;7.22;;;;;;;21.42;68.85;100326.53;1775596;80;21386;-89
2022/08/28 00:19:27;;;;;;;14.68;7.33;;;;;;;21.42;68.89;100329.71;1775568;80;20849;-89
2022/08/28 00:21:54;;;;;;;14.38;7.58;;;;;;;21.42;68.89;100329.71;1753829;80;21401;-90
2022/08/28 00:24:20;;;;;;;12.05;7.40;;;;;;;21.40;68.95;100321.84;1775784;80;21326;-91
2022/08/28 00:29:32;;;;;;;17.73;7.80;;;;;;;21.43;69.06;100325.55;1775618;80;21330;-90
2022/08/28 00:31:58;;;;;;;14.03;7.83;;;;;;;21.45;69.05;100320.02;1775624;80;20904;-89
2022/08/28 00:34:27;;;;;;;17.55;8.75;;;;;;;21.48;69.23;100317.03;1775541;80;20972;-90
2022/08/28 00:36:53;;;;;;;17.73;7.75;;;;;;;21.49;69.34;100317.35;1776275;80;20892;-89
2022/08/28 00:39:20;;;;;;;17.62;8.60;;;;;;;21.50;69.35;100316.36;1776631;80;21227;-90
2022/08/28 00:41:47;;;;;;;20.70;9.13;;;;;;;21.49;69.50;100314.68;1776054;80;21461;-88
2022/08/28 00:44:18;;;;;;;19.42;8.40;;;;;;;21.47;69.63;100306.84;1775539;80;20924;-90
2022/08/28 00:46:48;;;;;;;16.02;7.85;;;;;;;21.44;69.65;100312.53;1775210;80;21296;-90
2022/08/28 00:49:20;;;;;;;16.48;7.72;;;;;;;21.42;69.91;100311.03;1775601;80;21058;-89
2022/08/28 00:52:04;;;;;;;14.45;7.90;;;;;;;21.38;70.00;100301.67;1775772;80;21137;-91
2022/08/28 00:54:33;;;;;;;15.98;8.53;;;;;;;21.33;70.11;100300.34;1775707;80;20916;-90
2022/08/28 00:57:03;;;;;;;18.85;8.55;;;;;;;21.31;70.32;100309.02;1775873;80;21425;-89
2022/08/28 00:59:30;;;;;;;17.70;8.05;;;;;;;21.31;70.42;100309.52;1775823;80;20884;-91
2022/08/28 01:01:57;;;;;;;16.75;8.18;;;;;;;21.29;70.54;100305.68;1775747;80;20968;-91
2022/08/28 01:04:27;;;;;;;16.12;9.25;;;;;;;21.29;70.69;100314.19;1775755;80;21094;-91
2022/08/28 01:06:55;;;;;;;13.83;8.65;;;;;;;21.28;70.73;100309.88;1775646;80;20923;-91
2022/08/28 01:09:24;;;;;;;16.32;7.83;;;;;;;21.25;70.84;100310.19;1775804;80;21411;-90
2022/08/28 01:11:54;;;;;;;17.20;8.50;;;;;;;21.22;71.02;100306.55;1775587;80;20850;-91
2022/08/28 01:14:25;;;;;;;15.68;8.35;;;;;;;21.19;71.25;100305.53;1775542;80;21346;-91
2022/08/28 01:16:54;;;;;;;13.83;8.40;;;;;;;21.18;71.44;100303.37;1774763;80;21147;-90
2022/08/28 01:19:30;;;;;;;16.85;8.78;;;;;;;21.18;71.55;100306.03;1748584;80;21476;-90
2022/08/28 01:22:08;;;;;;;15.68;9.05;;;;;;;21.17;71.61;100298.23;1776473;80;20956;-89
2022/08/28 01:24:35;;;;;;;15.18;8.53;;;;;;;21.16;71.68;100305.37;1776173;80;20948;-91
2022/08/28 01:27:01;;;;;;;23.57;8.83;;;;;;;21.13;71.52;100301.72;1776065;80;20891;-91
2022/08/28 01:29:29;;;;;;;17.35;8.33;;;;;;;21.08;71.53;100296.89;1777004;80;21185;-91
2022/08/28 01:31:58;;;;;;;16.85;7.78;;;;;;;21.05;71.69;100299.05;1776659;80;21468;-91
2022/08/28 01:34:24;;;;;;;14.90;8.23;;;;;;;21.01;71.83;100297.71;1776034;80;21405;-90
2022/08/28 01:36:51;;;;;;;15.28;7.67;;;;;;;20.99;71.96;100293.08;1775788;80;21378;-90
2022/08/28 01:39:21;;;;;;;19.75;8.95;;;;;;;20.95;72.10;100293.91;1776081;80;20924;-91
2022/08/28 01:41:50;;;;;;;14.75;7.65;;;;;;;20.94;72.36;100300.22;1775674;80;21236;-91
2022/08/28 01:44:22;;;;;;;18.02;7.92;;;;;;;20.93;72.57;100297.74;1777622;80;21015;-90
2022/08/28 01:46:48;;;;;;;11.60;8.13;;;;;;;20.94;72.78;100301.55;1777546;80;20924;-91
2022/08/28 01:49:15;;;;;;;20.80;8.08;;;;;;;20.92;72.98;100298.25;1776073;80;20987;-92
2022/08/28 01:51:42;;;;;;;12.25;7.17;;;;;;;20.92;73.18;100298.25;1776623;80;20900;-93
2022/08/28 01:54:09;;;;;;;14.68;7.45;;;;;;;20.91;73.31;100297.90;1776413;80;21868;-90
2022/08/28 01:56:36;;;;;;;15.72;7.65;;;;;;;20.91;73.52;100301.90;1775486;80;21023;-90
2022/08/28 01:59:06;;;;;;;12.78;7.12;;;;;;;20.90;73.64;100298.91;1775339;80;20885;-91
2022/08/28 02:01:33;;;;;;;14.28;7.00;;;;;;;20.91;73.66;100300.56;1775535;80;20940;-90
2022/08/28 02:04:03;;;;;;;16.15;8.00;;;;;;;20.89;73.67;100295.39;1775410;80;20935;-93
2022/08/28 02:06:30;;;;;;;15.15;7.83;;;;;;;20.89;73.76;100293.23;1775475;80;21240;-90
2022/08/28 02:08:58;;;;;;;16.57;7.37;;;;;;;20.90;73.85;100296.25;1775619;80;20928;-91
2022/08/28 02:11:25;;;;;;;19.98;8.13;;;;;;;20.90;73.83;100301.07;1775420;80;20896;-91
2022/08/28 02:13:52;;;;;;;18.02;8.78;;;;;;;20.91;73.76;100305.90;1775341;80;20939;-90
2022/08/28 02:16:20;;;;;;;18.25;8.20;;;;;;;20.94;73.82;100306.06;1775500;80;20955;-90
2022/08/28 02:18:46;;;;;;;14.23;7.87;;;;;;;20.94;73.81;100298.89;1775335;80;21173;-90
2022/08/28 02:21:13;;;;;;;11.57;7.60;;;;;;;20.96;73.76;100304.06;1775529;80;20892;-90
2022/08/28 02:23:41;;;;;;;15.72;8.23;;;;;;;20.94;73.63;100305.55;1783790;80;20904;-91
2022/08/28 02:26:08;;;;;;;94.60;13.93;;;;;;;20.89;73.75;100305.23;1783648;80;20979;-91
2022/08/28 02:28:36;;;;;;;53.92;9.90;;;;;;;20.89;73.77;100309.23;1783673;80;20986;-91
2022/08/28 02:31:05;;;;;;;21.15;7.92;;;;;;;20.88;73.76;100311.58;1783708;80;21239;-89
2022/08/28 02:33:32;;;;;;;18.42;8.53;;;;;;;20.86;73.74;100309.06;1783738;80;20935;-89
2022/08/28 02:35:59;;;;;;;16.87;8.45;;;;;;;20.84;73.83;100312.90;1784803;80;20947;-90
2022/08/28 02:38:25;;;;;;;15.93;7.30;;;;;;;20.80;73.97;100311.56;1783708;80;20884;-91
2022/08/28 02:40:52;;;;;;;22.00;8.68;;;;;;;20.77;74.11;100314.06;1783795;80;21452;-91
2022/08/28 02:43:19;;;;;;;17.62;7.95;;;;;;;20.75;74.24;100313.39;1783711;80;21243;-91
2022/08/28 02:45:46;;;;;;;15.38;7.53;;;;;;;20.74;74.34;100322.88;1783614;80;21003;-91
2022/08/28 02:48:12;;;;;;;23.62;7.80;;;;;;;20.71;74.37;100313.39;1783566;80;21008;-91
2022/08/28 02:50:39;;;;;;;23.30;8.25;;;;;;;20.68;74.34;100317.22;1783718;80;20947;-90
2022/08/28 02:53:06;;;;;;;21.60;8.33;;;;;;;20.64;74.38;100322.54;1783827;80;21053;-90
2022/08/28 02:55:33;;;;;;;18.10;7.55;;;;;;;20.61;74.57;100322.02;1784260;80;21179;-92
2022/08/28 02:58:00;;;;;;;14.25;8.15;;;;;;;20.60;74.63;100317.20;1783955;80;20920;-91
2022/08/28 03:00:27;;;;;;;12.00;6.65;;;;;;;20.59;74.65;100320.88;1783820;80;20936;-90
2022/08/28 03:02:54;;;;;;;15.40;7.08;;;;;;;20.59;74.65;100317.39;1783802;80;21000;-93
2022/08/28 03:05:23;;;;;;;12.95;8.13;;;;;;;20.57;74.63;100318.87;1785072;80;20884;-90
2022/08/28 03:07:52;;;;;;;13.28;7.33;;;;;;;20.54;74.71;100319.16;1785988;80;20889;-87
2022/08/28 03:10:19;;;;;;;16.02;10.63;;;;;;;20.54;74.82;100322.32;1787003;80;20868;-87
2022/08/28 03:12:45;;;;;;;27.02;12.85;;;;;;;20.54;74.83;100324.48;1786138;80;21050;-91
2022/08/28 03:15:12;;;;;;;25.43;13.88;;;;;;;20.54;74.84;100322.32;1783895;80;20888;-90
2022/08/28 03:17:39;;;;;;;23.38;15.83;;;;;;;20.52;74.86;100318.98;1783877;80;20904;-91
2022/08/28 03:20:07;;;;;;;22.10;15.10;;;;;;;20.50;74.92;100318.66;1785537;80;21239;-90
2022/08/28 03:25:21;;;;;;;18.00;10.78;;;;;;;20.47;75.09;100315.48;1784921;80;20924;-90
2022/08/28 03:27:48;;;;;;;21.95;11.85;;;;;;;20.46;75.01;100315.16;1783943;80;21541;-91
2022/08/28 03:30:15;;;;;;;20.92;11.48;;;;;;;20.44;74.98;100314.49;1784112;80;21374;-91
2022/08/28 03:34:24;;;;;;;19.20;13.68;;;;;;;20.50;75.09;100324.50;1884516;75;22538;-91
2022/08/28 03:36:50;;;;;;;24.65;11.85;;;;;;;20.47;75.06;100320.30;1861188;77;20950;-91
2022/08/28 03:39:17;;;;;;;15.45;10.35;;;;;;;20.49;74.95;100324.97;1830156;77;21873;-90
2022/08/28 03:41:44;;;;;;;17.12;8.93;;;;;;;20.49;74.90;100322.81;1861044;76;20856;-91
2022/08/28 03:44:11;;;;;;;18.00;9.03;;;;;;;20.48;74.82;100327.31;1861337;77;20911;-90
2022/08/28 03:46:37;;;;;;;13.70;8.38;;;;;;;20.47;74.80;100320.30;1861873;77;20887;-89
2022/08/28 03:49:04;;;;;;;18.55;9.03;;;;;;;20.45;74.82;100321.00;1831143;77;20867;-90
2022/08/28 03:51:32;;;;;;;15.40;8.85;;;;;;;20.46;74.91;100323.16;1861469;76;21121;-91
2022/08/28 03:54:00;;;;;;;14.45;8.80;;;;;;;20.47;75.03;100324.81;1862231;77;20946;-88
2022/08/28 03:56:29;;;;;;;19.00;10.90;;;;;;;20.48;75.13;100322.50;1831124;77;20899;-91
2022/08/28 03:58:59;;;;;;;13.08;7.55;;;;;;;20.48;75.24;100320.66;1861218;76;20993;-90
2022/08/28 04:01:28;;;;;;;11.83;7.47;;;;;;;20.49;75.28;100327.64;1861080;77;20836;-91
2022/08/28 04:03:56;;;;;;;14.60;7.42;;;;;;;20.52;75.30;100334.50;1861207;77;21822;-90
2022/08/28 04:06:22;;;;;;;19.95;9.43;;;;;;;20.53;75.20;100328.16;1861205;76;20871;-90
2022/08/28 04:08:49;;;;;;;20.10;8.65;;;;;;;20.55;75.05;100335.48;1861268;76;20990;-90
2022/08/28 04:11:17;;;;;;;15.53;7.97;;;;;;;20.58;75.12;100339.69;1861235;77;21514;-92
2022/08/28 04:13:44;;;;;;;18.15;9.33;;;;;;;20.61;75.16;100325.55;1863094;77;20918;-91
2022/08/28 04:16:12;;;;;;;24.32;9.75;;;;;;;20.65;74.96;100325.55;1864545;77;21095;-90
2022/08/28 04:18:40;;;;;;;21.93;9.33;;;;;;;20.70;74.85;100326.39;1864552;77;20820;-91
2022/08/28 04:21:13;;;;;;;25.97;10.60;;;;;;;20.76;74.55;100327.04;1864509;77;20910;-92
2022/08/28 04:23:42;;;;;;;18.82;9.18;;;;;;;20.82;74.40;100325.05;1863156;77;20946;-92
2022/08/28 04:26:14;;;;;;;14.40;8.30;;;;;;;20.91;74.24;100322.72;1863745;77;21075;-92
2022/08/28 04:28:41;;;;;;;17.85;8.55;;;;;;;21.02;74.01;100325.55;1863756;77;21512;-91
2022/08/28 04:31:07;;;;;;;13.98;7.28;;;;;;;21.13;73.75;100322.22;1863807;77;20875;-90
2022/08/28 04:33:34;;;;;;;13.80;7.58;;;;;;;21.24;73.41;100325.88;1858168;77;20924;-90
2022/08/28 04:36:10;;;;;;;16.12;8.95;;;;;;;21.34;73.16;100323.84;1853553;77;20964;-90
2022/08/28 04:38:38;;;;;;;12.15;6.67;;;;;;;21.50;72.84;100321.19;1853568;77;20909;-89
2022/08/28 04:41:06;;;;;;;15.38;8.70;;;;;;;21.68;72.51;100324.97;1851723;77;21193;-91
2022/08/28 04:43:32;;;;;;;18.40;7.80;;;;;;;21.86;72.19;100327.41;1852972;77;20909;-91
2022/08/28 04:46:04;;;;;;;12.88;6.90;;;;;;;22.07;71.82;100328.14;1852762;77;20889;-91
2022/08/28 04:48:31;;;;;;;22.67;8.43;;;;;;;22.27;71.35;100328.58;1851775;77;20944;-91
2022/08/28 04:50:58;;;;;;;23.55;8.30;;;;;;;22.47;70.98;100329.47;1850612;77;20845;-92
2022/08/28 04:53:25;;;;;;;19.17;7.87;;;;;;;22.65;70.59;100327.33;1850002;76;21390;-91
2022/08/28 04:55:51;;;;;;;21.80;8.25;;;;;;;22.83;70.19;100327.55;1850091;77;20858;-92
2022/08/28 04:58:19;;;;;;;21.05;8.58;;;;;;;22.97;69.68;100329.45;1850954;76;20890;-89
2022/08/28 05:00:48;;;;;;;17.52;7.42;;;;;;;23.11;69.16;100329.19;1851171;77;20873;-91
2022/08/28 05:03:16;;;;;;;24.92;8.10;;;;;;;23.22;68.52;100332.76;1849824;77;21007;-91
2022/08/28 05:05:46;;;;;;;19.75;7.85;;;;;;;23.36;68.20;100336.47;1850217;77;21382;-91
2022/08/28 05:08:13;;;;;;;15.80;7.85;;;;;;;23.51;67.96;100336.48;1850859;77;20873;-91
2022/08/28 05:10:40;;;;;;;22.85;8.43;;;;;;;23.66;67.45;100341.34;1826385;77;20873;-92
2022/08/28 05:13:09;;;;;;;19.65;8.10;;;;;;;23.85;67.23;100348.01;1849572;77;21533;-90
2022/08/28 05:15:43;;;;;;;16.07;7.92;;;;;;;24.06;67.12;100349.94;1850733;77;20889;-92
2022/08/28 05:18:12;;;;;;;24.95;8.03;;;;;;;24.29;66.42;100347.64;1849251;77;21131;-94
2022/08/28 05:20:44;;;;;;;21.73;7.87;;;;;;;24.58;66.09;100351.59;1850369;77;20929;-93
2022/08/28 05:23:12;;;;;;;23.55;8.23;;;;;;;25.03;65.73;100354.08;1850288;77;20870;-93
2022/08/28 05:25:43;;;;;;;24.85;8.98;;;;;;;25.48;63.56;100352.48;1850329;77;20929;-93
2022/08/28 05:28:10;;;;;;;24.90;8.83;;;;;;;25.83;59.37;100350.14;1850268;76;20936;-93
2022/08/28 05:30:39;;;;;;;27.85;9.05;;;;;;;26.13;59.59;100352.57;1850244;77;21517;-92
2022/08/28 05:33:06;;;;;;;24.12;8.18;;;;;;;26.34;59.38;100356.98;1852586;75;20879;-92
2022/08/28 05:35:39;;;;;;;20.43;7.80;;;;;;;26.49;58.84;100353.31;1860704;76;20911;-91
2022/08/28 05:38:06;;;;;;;26.05;7.67;;;;;;;26.57;56.40;100344.57;1861480;76;20868;-93
2022/08/28 05:40:33;;;;;;;34.65;9.03;;;;;;;26.64;53.42;100355.34;1861096;77;20852;-91
2022/08/28 05:42:59;;;;;;;27.42;8.30;;;;;;;26.68;52.20;100360.63;1860910;77;21368;-92
2022/08/28 05:45:26;;;;;;;25.62;8.03;;;;;;;26.72;52.33;100352.96;1860921;77;20867;-91
2022/08/28 05:47:53;;;;;;;28.32;6.72;;;;;;;26.77;51.91;100355.86;1860963;77;20875;-91
2022/08/28 05:50:22;;;;;;;24.60;8.55;;;;;;;26.81;50.68;100356.62;1860500;77;20918;-91
2022/08/28 05:52:49;;;;;;;33.73;8.05;;;;;;;26.84;51.60;100357.54;1860549;77;20831;-91
2022/08/28 05:55:16;;;;;;;21.50;6.22;;;;;;;26.96;50.21;100355.58;1860582;77;21212;-94
2022/08/28 05:57:43;;;;;;;27.17;6.00;;;;;;;27.15;49.06;100353.95;1860547;77;20875;-91
2022/08/28 06:00:12;;;;;;;35.75;7.28;;;;;;;27.36;47.78;100354.26;1860743;77;21448;-93
2022/08/28 06:02:43;;;;;;;23.67;5.70;;;;;;;27.57;47.00;100356.72;1861659;77;20923;-93
2022/08/28 06:05:11;;;;;;;29.70;7.40;;;;;;;27.86;45.89;100358.66;1863341;77;20910;-93
2022/08/28 06:07:39;;;;;;;34.00;6.30;;;;;;;28.08;45.43;100353.28;1863410;77;21229;-92
2022/08/28 06:10:08;;;;;;;31.97;5.62;;;;;;;28.37;44.96;100357.81;1863350;77;20919;-93
2022/08/28 06:12:36;;;;;;;31.20;7.15;;;;;;;28.72;44.25;100360.95;1862729;77;20963;-94
2022/08/28 06:15:04;;;;;;;33.60;6.12;;;;;;;29.16;45.75;100358.35;1861061;77;21373;-92
2022/08/28 06:17:34;;;;;;;17.00;6.03;;;;;;;29.66;45.04;100353.39;1862329;77;20864;-93
2022/08/28 06:20:04;;;;;;;24.57;6.12;;;;;;;30.26;44.03;100354.91;1862489;77;21394;-93
2022/08/28 06:22:34;;;;;;;32.53;6.42;;;;;;;30.97;43.34;100356.00;1861455;77;20923;-91
2022/08/28 06:25:01;;;;;;;29.32;6.12;;;;;;;31.77;41.83;100355.11;1860786;77;20907;-93
2022/08/28 06:27:28;;;;;;;25.12;6.42;;;;;;;32.38;40.52;100353.66;1860692;77;21356;-91
2022/08/28 06:29:57;;;;;;;20.62;5.22;;;;;;;32.75;38.97;100360.56;1860643;77;20875;-91
2022/08/28 06:32:24;;;;;;;27.13;7.20;;;;;;;32.93;38.78;100353.56;1860676;76;21120;-93
2022/08/28 06:34:51;;;;;;;32.85;5.92;;;;;;;32.95;39.70;100359.58;1860267;77;20860;-92
2022/08/28 06:37:17;;;;;;;26.85;6.12;;;;;;;32.91;38.02;100351.63;1860402;77;20997;-91
2022/08/28 06:39:44;;;;;;;27.73;6.53;;;;;;;32.83;37.11;100345.23;1860376;77;21352;-90
2022/08/28 06:42:10;;;;;;;28.20;6.90;;;;;;;32.81;37.78;100345.47;1860518;76;20954;-90
2022/08/28 06:44:38;;;;;;;27.10;6.62;;;;;;;32.86;38.15;100345.27;1860440;77;21191;-91
2022/08/28 06:47:05;;;;;;;17.67;5.70;;;;;;;32.88;38.43;100344.48;1860273;76;20824;-93
2022/08/28 06:49:32;;;;;;;26.35;8.23;;;;;;;32.89;38.86;100338.82;1860585;77;20949;-90
2022/08/28 06:51:58;;;;;;;24.65;7.45;;;;;;;32.85;40.28;100340.38;1860416;76;21454;-90
2022/08/28 06:54:25;;;;;;;32.38;11.63;;;;;;;32.95;40.29;100336.48;1860608;77;20863;-92
2022/08/28 06:56:52;;;;;;;21.12;8.95;;;;;;;33.15;40.12;100327.00;1860668;77;21121;-91
2022/08/28 06:59:19;;;;;;;22.05;8.13;;;;;;;33.47;39.19;100330.47;1860327;77;20868;-92
2022/08/28 07:01:46;;;;;;;21.90;8.55;;;;;;;33.80;38.92;100329.03;1860345;77;21012;-92
2022/08/28 07:04:15;;;;;;;21.87;7.12;;;;;;;34.31;38.50;100336.13;1860581;77;20978;-90
2022/08/28 07:06:49;;;;;;;24.25;6.05;;;;;;;34.84;37.47;100338.55;1860393;77;20878;-91
2022/08/28 07:09:11;;;;;;;20.90;5.92;;;;;;;35.38;34.46;100333.52;1858318;77;21973;-90
2022/08/28 07:11:38;;;;;;;27.45;5.70;;;;;;;35.89;31.75;100331.06;1861459;77;20931;-89
2022/08/28 07:14:05;;;;;;;27.48;6.50;;;;;;;36.42;31.12;100331.76;1862936;77;20828;-91
2022/08/28 07:16:36;;;;;;;22.77;5.60;;;;;;;36.92;30.20;100332.88;1860831;77;21033;-92
2022/08/28 07:19:04;;;;;;;19.98;5.80;;;;;;;37.40;29.18;100328.98;1861122;77;20860;-93
2022/08/28 07:21:33;;;;;;;20.10;5.83;;;;;;;37.74;28.18;100327.24;1861275;77;21078;-91
2022/08/28 07:24:02;;;;;;;30.70;5.65;;;;;;;37.94;27.32;100322.22;1861210;77;20931;-92
2022/08/28 07:26:29;;;;;;;26.65;6.85;;;;;;;38.12;26.71;100320.77;1862382;76;20954;-90
2022/08/28 07:28:55;;;;;;;22.32;5.40;;;;;;;38.32;26.75;100317.64;1861522;77;21329;-90
2022/08/28 07:31:25;;;;;;;21.80;4.95;;;;;;;38.58;26.54;100318.83;1861257;77;20878;-92
2022/08/28 07:33:53;;;;;;;23.95;6.42;;;;;;;38.96;26.33;100322.66;1860636;76;21243;-91
2022/08/28 07:36:23;;;;;;;22.20;5.55;;;;;;;39.17;25.24;100327.36;1860771;76;20903;-91
2022/08/28 07:38:50;;;;;;;22.73;5.25;;;;;;;39.08;24.64;100323.06;1860867;77;20891;-90
2022/08/28 07:41:22;;;;;;;23.92;5.58;;;;;;;38.82;25.04;100324.38;1860282;76;20978;-91
2022/08/28 07:46:35;;;;;;;27.40;5.33;;;;;;;38.15;25.82;100323.49;1862083;77;21217;-91
2022/08/28 07:49:03;;;;;;;39.40;24.12;;;;;;;37.70;25.93;100326.16;1861345;76;21333;-91
2022/08/28 07:51:32;;;;;;;20.55;5.25;;;;;;;37.43;26.02;100315.58;1860861;77;20953;-93
2022/08/28 07:53:58;;;;;;;21.87;5.12;;;;;;;37.29;26.82;100317.27;1828738;76;20958;-91
2022/08/28 07:56:26;;;;;;;17.87;4.70;;;;;;;37.37;26.99;100317.23;1860660;77;20967;-90
2022/08/28 07:58:55;;;;;;;17.25;4.90;;;;;;;37.39;27.12;100318.59;1860487;77;21160;-91
2022/08/28 08:01:23;;;;;;;38.33;5.47;;;;;;;37.51;27.54;100316.38;1860498;77;20918;-90
2022/08/28 08:03:52;;;;;;;23.05;5.42;;;;;;;37.71;27.34;100319.61;1860925;77;21388;-93
2022/08/28 08:06:20;;;;;;;22.25;5.72;;;;;;;38.07;27.30;100314.53;1859908;76;20927;-92
2022/08/28 08:08:47;;;;;;;20.10;5.90;;;;;;;38.45;26.71;100310.70;1860542;76;20958;-93
2022/08/28 08:11:17;;;;;;;26.27;5.00;;;;;;;38.78;26.01;100313.20;1860594;77;21103;-94
2022/08/28 08:13:47;;;;;;;20.62;6.12;;;;;;;39.12;25.72;100309.59;1860723;76;20972;-91
2022/08/28 08:16:19;;;;;;;25.43;5.78;;;;;;;39.46;25.19;100312.24;1860566;77;20898;-91
2022/08/28 08:18:47;;;;;;;25.40;4.78;;;;;;;39.69;25.11;100305.64;1860650;77;20954;-91
2022/08/28 08:21:17;;;;;;;29.85;7.30;;;;;;;39.95;25.25;100308.33;1861184;77;20851;-92
2022/08/28 08:23:44;;;;;;;23.12;5.05;;;;;;;40.15;24.55;100301.72;1861103;77;21145;-91
2022/08/28 08:26:15;;;;;;;23.80;7.45;;;;;;;40.27;24.67;100299.94;1861310;77;20946;-90
2022/08/28 08:28:42;;;;;;;26.00;6.20;;;;;;;40.39;24.74;100296.72;1860806;77;20867;-90
2022/08/28 08:31:13;;;;;;;18.25;4.75;;;;;;;40.72;24.30;100288.50;1860591;77;20891;-90
2022/08/28 08:33:45;;;;;;;19.17;5.20;;;;;;;40.99;24.51;100282.22;1859357;77;20895;-91
2022/08/28 08:36:16;;;;;;;27.02;5.42;;;;;;;41.17;24.28;100275.83;1860635;76;21143;-92
2022/08/28 08:38:43;;;;;;;15.77;5.47;;;;;;;41.35;24.19;100271.34;1860309;76;21313;-91
2022/08/28 08:41:35;;;;;;;16.87;4.15;;;;;;;41.59;23.96;100264.25;1860750;77;21249;-91
2022/08/28 08:44:27;;;;;;;28.27;5.40;;;;;;;41.76;24.02;100262.80;1831782;77;20891;-88
2022/08/28 08:47:26;;;;;;;20.02;6.12;;;;;;;41.86;23.86;100268.63;1860589;77;20902;-91
2022/08/28 08:50:10;;;;;;;23.07;6.67;;;;;;;41.96;24.26;100260.95;1860489;77;21135;-90
2022/08/28 08:53:17;;;;;;;23.47;6.83;;;;;;;42.20;23.71;100259.84;1860582;76;20947;-90
2022/08/28 08:56:04;;;;;;;20.40;5.30;;;;;;;42.34;23.94;100255.66;1861071;77;20844;-89
2022/08/28 08:58:39;;;;;;;25.62;6.12;;;;;;;42.55;23.72;100254.02;1822654;77;21002;-90
2022/08/28 09:01:31;;;;;;;19.23;4.90;;;;;;;42.75;23.49;100251.27;1860554;77;20954;-90
2022/08/28 09:04:21;;;;;;;32.00;5.87;;;;;;;42.81;22.71;100249.20;1861880;77;21078;-86
2022/08/28 09:07:02;;;;;;;28.77;6.25;;;;;;;42.77;22.59;100250.97;1862020;77;20871;-90
2022/08/28 09:09:36;;;;;;;32.15;7.00;;;;;;;42.77;23.05;100247.64;1861137;76;21364;-90
2022/08/28 09:12:07;;;;;;;30.95;7.78;;;;;;;42.92;23.12;100242.88;1860444;76;20914;-90
2022/08/28 09:15:15;;;;;;;28.77;10.70;;;;;;;43.17;22.93;100244.08;1861652;77;20871;-89
2022/08/28 09:17:54;;;;;;;33.05;8.75;;;;;;;43.45;22.68;100251.00;1862691;77;21716;-89
2022/08/28 09:20:26;;;;;;;24.82;8.93;;;;;;;43.71;22.46;100250.23;1861033;77;20906;-91
2022/08/28 09:22:53;;;;;;;23.70;8.58;;;;;;;43.71;22.63;100248.04;1860812;76;20860;-89
2022/08/28 09:25:54;;;;;;;27.42;10.05;;;;;;;43.66;22.76;100248.44;1861602;76;20875;-93
2022/08/28 09:28:34;;;;;;;29.27;11.28;;;;;;;43.67;22.77;100243.75;1861262;76;20954;-91
2022/08/28 09:31:08;;;;;;;32.25;16.65;;;;;;;43.52;23.00;100245.00;1860601;77;21235;-91
2022/08/28 09:33:43;;;;;;;33.55;11.05;;;;;;;43.49;23.35;100247.00;1860407;77;20872;-89
2022/08/28 09:36:36;;;;;;;29.55;9.38;;;;;;;43.56;23.87;100234.94;1860232;76;20879;-90
2022/08/28 09:39:19;;;;;;;21.85;5.17;;;;;;;43.57;24.09;100236.55;1860561;77;21021;-89
2022/08/28 09:45:20;;;;;;;26.90;5.87;;;;;;;43.40;24.05;100242.88;1860393;77;21146;-91
2022/08/28 09:47:54;;;;;;;21.50;8.43;;;;;;;43.18;24.02;100242.39;1860542;77;20872;-91
2022/08/28 09:50:26;;;;;;;31.27;8.13;;;;;;;43.16;24.39;100234.99;1860810;77;20915;-91
2022/08/28 09:52:56;;;;;;;27.00;12.10;;;;;;;43.23;24.47;100242.84;1860688;77;21357;-91
2022/08/28 09:55:35;;;;;;;25.70;5.53;;;;;;;43.42;23.95;100246.67;1860699;77;20848;-92
2022/08/28 09:58:03;;;;;;;22.82;6.00;;;;;;;43.33;23.90;100245.85;1860939;76;21420;-91
2022/08/28 10:00:32;;;;;;;31.68;7.17;;;;;;;43.07;24.11;100246.58;1863463;77;20938;-92
2022/08/28 10:03:13;;;;;;;23.90;6.83;;;;;;;42.67;24.52;100242.42;1863442;77;20899;-90
2022/08/28 10:06:05;;;;;;;25.70;5.97;;;;;;;42.40;24.98;100240.63;1862960;77;20967;-93
2022/08/28 10:08:55;;;;;;;26.50;5.75;;;;;;;42.24;25.35;100236.04;1830171;77;20977;-93
2022/08/28 10:11:33;;;;;;;23.95;5.45;;;;;;;42.32;25.57;100240.80;1841453;76;21208;-91
2022/08/28 10:14:23;;;;;;;22.75;5.30;;;;;;;42.38;25.24;100234.03;1830045;77;20903;-91
2022/08/28 10:17:20;;;;;;;19.85;4.72;;;;;;;42.51;25.05;100237.04;1860923;77;20887;-90
2022/08/28 10:20:01;;;;;;;17.70;4.37;;;;;;;42.57;24.86;100233.83;1861420;77;20931;-93
2022/08/28 10:23:03;;;;;;;19.73;4.75;;;;;;;42.31;25.21;100244.67;1861647;77;20974;-92
2022/08/28 10:25:49;;;;;;;;;;;;;;;41.97;25.65;100241.09;1864751;77;21090;-89
2022/08/28 10:28:39;;;;;;;25.85;12.23;;;;;;;41.85;25.91;100238.09;1862292;77;20485;-90
2022/08/28 10:31:14;;;;;;;33.05;15.03;;;;;;;41.78;25.85;100239.89;1832187;77;20875;-91
2022/08/28 10:34:01;;;;;;;14.68;5.53;;;;;;;41.70;25.84;100235.92;1863426;77;20923;-89
2022/08/28 10:36:29;;;;;;;16.35;4.22;;;;;;;41.69;25.84;100237.60;1852807;77;20905;-90
2022/08/28 10:39:36;;;;;;;28.52;5.45;;;;;;;41.43;26.05;100235.41;1853005;77;21104;-90
2022/08/28 10:42:04;;;;;;;17.62;4.70;;;;;;;41.12;26.20;100236.58;1852690;77;20976;-90
2022/08/28 10:44:53;;;;;;;14.55;4.28;;;;;;;40.72;26.76;100243.94;1850977;77;20897;-92
2022/08/28 10:47:20;;;;;;;19.77;3.95;;;;;;;40.57;27.12;100240.06;1851385;77;20917;-92
2022/08/28 10:49:50;;;;;;;19.67;4.25;;;;;;;40.44;27.13;100233.97;1851310;77;21462;-90
2022/08/28 10:52:40;;;;;;;19.50;5.30;;;;;;;40.35;27.63;100229.16;1850472;77;21132;-90
2022/08/28 10:55:22;;;;;;;17.57;6.00;;;;;;;40.16;27.50;100226.44;1851557;77;21000;-90
2022/08/28 10:57:57;;;;;;;18.55;4.72;;;;;;;40.02;27.79;100227.49;1851661;77;20926;-89
2022/08/28 11:00:27;;;;;;;18.73;4.50;;;;;;;39.83;28.03;100230.27;1850391;77;20925;-90
2022/08/28 11:02:58;;;;;;;15.40;4.55;;;;;;;39.59;28.48;100228.37;1850869;77;20866;-93
2022/08/28 11:05:36;;;;;;;17.27;5.65;;;;;;;39.33;28.05;100229.23;1850588;77;21141;-88
2022/08/28 11:08:07;;;;;;;11.85;4.03;;;;;;;39.01;28.31;100224.42;1850090;77;20916;-93
2022/08/28 11:10:48;;;;;;;18.62;4.50;;;;;;;38.78;28.56;100228.20;1849677;77;20835;-91
2022/08/28 11:13:38;;;;;;;14.83;3.58;;;;;;;38.58;28.71;100222.91;1850039;77;20929;-90
2022/08/28 11:16:18;;;;;;;17.37;4.37;;;;;;;38.34;28.68;100218.17;1844185;77;20865;-88
2022/08/28 11:19:07;;;;;;;16.35;4.87;;;;;;;38.03;29.24;100217.05;1848927;77;21206;-87
2022/08/28 11:21:50;;;;;;;20.23;4.45;;;;;;;37.73;29.88;100224.34;1851876;76;20885;-90
2022/08/28 11:24:42;;;;;;;15.58;4.47;;;;;;;37.49;30.43;100223.36;1851704;77;21399;-88
2022/08/28 11:27:30;;;;;;;19.67;5.67;;;;;;;37.26;30.81;100212.50;1851177;77;21227;-87
2022/08/28 11:30:28;;;;;;;23.55;5.67;;;;;;;37.19;30.99;100209.26;1825312;77;21313;-92
2022/08/28 11:33:00;;;;;;;18.98;3.60;;;;;;;37.29;31.26;100201.84;1851970;77;21106;-89
2022/08/28 11:35:38;;;;;;;15.90;5.28;;;;;;;37.50;30.92;100203.91;1854696;75;21317;-89
2022/08/28 11:38:06;;;;;;;22.87;4.97;;;;;;;37.54;30.22;100196.77;1861781;77;20875;-89
2022/08/28 11:40:39;;;;;;;13.25;3.45;;;;;;;37.54;30.35;100194.03;1861376;77;20891;-91
2022/08/28 11:43:19;;;;;;;17.45;4.70;;;;;;;37.60;30.46;100188.03;1861210;77;20910;-92
2022/08/28 11:45:59;;;;;;;20.83;5.77;;;;;;;37.56;30.47;100192.98;1859730;77;20962;-91
2022/08/28 11:48:43;;;;;;;17.40;5.17;;;;;;;37.51;30.35;100192.44;1861503;76;20890;-90
2022/08/28 11:54:21;;;;;;;19.42;4.15;;;;;;;37.39;29.48;100183.17;1846676;77;21376;-91